createdAt,value
2017-06-29T00:00:04.220Z,80.56
2017-06-29T00:00:32.340Z,80.62
2017-06-29T00:01:00.481Z,80.04
2017-06-29T00:01:28.513Z,79.75
2017-06-29T00:01:56.567Z,78.98
2017-06-29T00:02:24.586Z,79.66
2017-06-29T00:02:52.719Z,79.46
2017-06-29T00:03:20.881Z,79.94
2017-06-29T00:03:48.857Z,79.56
2017-06-29T00:04:17.000Z,79.56
2017-06-29T00:04:44.951Z,79.66
2017-06-29T00:05:13.022Z,79.46
2017-06-29T00:05:41.167Z,79.46
2017-06-29T00:06:09.214Z,79.85
2017-06-29T00:06:37.262Z,80.23
2017-06-29T00:07:05.417Z,79.94
2017-06-29T00:07:33.529Z,79.46
2017-06-29T00:08:01.586Z,79.85
2017-06-29T00:08:29.721Z,79.56
2017-06-29T00:08:57.880Z,79.46
2017-06-29T00:09:26.013Z,79.75
2017-06-29T00:09:54.151Z,79.08
2017-06-29T00:10:22.265Z,79.46
2017-06-29T00:10:50.439Z,79.46
2017-06-29T00:11:18.369Z,79.36
2017-06-29T00:11:46.503Z,79.46
2017-06-29T00:12:14.597Z,79.56
2017-06-29T00:12:42.642Z,79.75
2017-06-29T00:13:10.667Z,79.94
2017-06-29T00:13:38.790Z,79.94
2017-06-29T00:14:06.938Z,80.62
2017-06-29T00:14:34.985Z,80.62
2017-06-29T00:15:03.024Z,80.91
2017-06-29T00:15:31.014Z,81.39
2017-06-29T00:15:59.183Z,80.91
2017-06-29T00:16:27.312Z,81.29
2017-06-29T00:16:55.353Z,81.58
2017-06-29T00:17:23.304Z,81.29
2017-06-29T00:17:51.479Z,81.2
2017-06-29T00:18:19.607Z,81.68
2017-06-29T00:18:47.757Z,81.58
2017-06-29T00:19:15.691Z,81.68
2017-06-29T00:19:43.825Z,82.35
2017-06-29T00:20:11.874Z,81.68
2017-06-29T00:20:40.046Z,81.58
2017-06-29T00:21:07.984Z,81.29
2017-06-29T00:21:36.131Z,81.39
2017-06-29T00:22:04.071Z,81.68
2017-06-29T00:22:32.226Z,81.1
2017-06-29T00:23:00.294Z,81.48
2017-06-29T00:23:28.380Z,81.58
2017-06-29T00:23:56.525Z,81.68
2017-06-29T00:24:24.697Z,81.58
2017-06-29T00:24:52.752Z,81.39
2017-06-29T00:25:20.898Z,81.39
2017-06-29T00:25:48.951Z,81.87
2017-06-29T00:26:17.157Z,81.96
2017-06-29T00:26:45.359Z,81.68
2017-06-29T00:27:13.548Z,81.87
2017-06-29T00:27:41.586Z,81.77
2017-06-29T00:28:09.741Z,81.63
2017-06-29T00:28:37.898Z,82.12
2017-06-29T00:29:06.063Z,82.31
2017-06-29T00:29:34.231Z,82.5
2017-06-29T00:30:02.369Z,82.6
2017-06-29T00:30:30.404Z,82.89
2017-06-29T00:31:00.631Z,82.89
2017-06-29T00:32:27.068Z,83.37
2017-06-29T00:33:38.321Z,83.28
2017-06-29T00:34:06.521Z,83.18
2017-06-29T00:34:34.578Z,83.47
2017-06-29T00:35:02.713Z,83.75
2017-06-29T00:35:30.870Z,83.62
2017-06-29T00:35:59.018Z,84
2017-06-29T00:36:27.171Z,83.81
2017-06-29T00:36:55.314Z,84
2017-06-29T00:37:23.382Z,84
2017-06-29T00:37:51.440Z,84
2017-06-29T00:38:19.466Z,83.81
2017-06-29T00:38:47.442Z,84.1
2017-06-29T00:39:15.587Z,84.29
2017-06-29T00:39:43.723Z,83.91
2017-06-29T00:40:11.870Z,84.29
2017-06-29T00:40:40.014Z,84.1
2017-06-29T00:41:08.024Z,83.81
2017-06-29T00:41:36.143Z,83.72
2017-06-29T00:42:04.287Z,83.91
2017-06-29T00:42:32.451Z,83.81
2017-06-29T00:43:00.591Z,83.91
2017-06-29T00:43:28.632Z,84
2017-06-29T00:43:56.687Z,83.81
2017-06-29T00:44:24.754Z,83.75
2017-06-29T00:44:52.790Z,83.95
2017-06-29T00:45:20.929Z,84.05
2017-06-29T00:45:49.159Z,83.95
2017-06-29T00:46:17.297Z,83.95
2017-06-29T00:46:45.336Z,83.47
2017-06-29T00:47:13.466Z,83.18
2017-06-29T00:47:41.512Z,83.23
2017-06-29T00:48:09.531Z,83.28
2017-06-29T00:48:37.580Z,83.56
2017-06-29T00:49:05.751Z,83.56
2017-06-29T00:49:33.914Z,83.37
2017-06-29T00:50:01.989Z,83.37
2017-06-29T00:50:30.148Z,83.66
2017-06-29T00:50:58.285Z,82.6
2017-06-29T00:51:26.361Z,82.89
2017-06-29T00:51:54.491Z,82.79
2017-06-29T00:52:22.635Z,83.75
2017-06-29T00:52:50.756Z,83.56
2017-06-29T00:53:18.927Z,83.18
2017-06-29T00:53:47.064Z,83.37
2017-06-29T00:54:15.116Z,83.47
2017-06-29T00:54:43.229Z,83.37
2017-06-29T00:55:11.360Z,83.37
2017-06-29T00:55:39.528Z,83.47
2017-06-29T00:56:07.565Z,83.47
2017-06-29T00:56:35.607Z,83.56
2017-06-29T00:57:03.633Z,83.37
2017-06-29T00:57:31.665Z,83.28
2017-06-29T00:57:59.824Z,83.37
2017-06-29T00:58:27.975Z,83.85
2017-06-29T00:58:56.112Z,83.75
2017-06-29T00:59:24.305Z,83.37
2017-06-29T00:59:52.457Z,82.89
2017-06-29T01:00:20.511Z,82.89
2017-06-29T01:00:48.665Z,82.89
2017-06-29T01:01:16.813Z,82.98
2017-06-29T01:01:44.977Z,82.79
2017-06-29T01:02:13.111Z,82.79
2017-06-29T01:02:41.329Z,82.7
2017-06-29T01:03:09.476Z,83.37
2017-06-29T01:03:37.680Z,83.37
2017-06-29T01:04:05.860Z,83.47
2017-06-29T01:04:34.041Z,83.85
2017-06-29T01:05:02.146Z,83.56
2017-06-29T01:05:30.293Z,83.37
2017-06-29T01:05:58.347Z,83.08
2017-06-29T01:06:26.510Z,83.37
2017-06-29T01:06:54.676Z,83.37
2017-06-29T01:07:22.884Z,83.47
2017-06-29T01:07:50.950Z,83.56
2017-06-29T01:08:19.100Z,83.47
2017-06-29T01:08:47.254Z,83.47
2017-06-29T01:09:15.430Z,83.75
2017-06-29T01:09:43.576Z,83.47
2017-06-29T01:10:11.612Z,84.05
2017-06-29T01:10:39.734Z,84.05
2017-06-29T01:11:07.869Z,84.05
2017-06-29T01:11:35.922Z,84.23
2017-06-29T01:12:04.073Z,84.05
2017-06-29T01:12:32.044Z,84.23
2017-06-29T01:13:00.185Z,84.62
2017-06-29T01:13:28.335Z,84.43
2017-06-29T01:13:56.350Z,84.43
2017-06-29T01:14:24.486Z,84.81
2017-06-29T01:14:52.538Z,84.53
2017-06-29T01:15:20.666Z,84.14
2017-06-29T01:15:48.815Z,84.23
2017-06-29T01:16:16.964Z,84.05
2017-06-29T01:16:45.093Z,83.72
2017-06-29T01:17:13.059Z,84.29
2017-06-29T01:17:41.217Z,84.58
2017-06-29T01:18:09.255Z,84.67
2017-06-29T01:18:37.281Z,84.58
2017-06-29T01:19:05.450Z,84.67
2017-06-29T01:19:33.573Z,84.87
2017-06-29T01:20:01.693Z,84.77
2017-06-29T01:20:29.779Z,84.58
2017-06-29T01:20:57.949Z,84.67
2017-06-29T01:21:26.161Z,84.58
2017-06-29T01:21:54.300Z,84.77
2017-06-29T01:22:22.453Z,84.77
2017-06-29T01:22:50.505Z,84.97
2017-06-29T01:23:18.544Z,85.06
2017-06-29T01:23:46.674Z,84.97
2017-06-29T01:24:14.821Z,85.16
2017-06-29T01:24:42.973Z,84.87
2017-06-29T01:25:11.048Z,85.54
2017-06-29T01:25:39.182Z,85.35
2017-06-29T01:26:07.336Z,85.35
2017-06-29T01:26:35.371Z,85.83
2017-06-29T01:27:03.516Z,85.16
2017-06-29T01:27:31.561Z,85.74
2017-06-29T01:27:59.737Z,85.64
2017-06-29T01:28:27.879Z,85.74
2017-06-29T01:28:56.031Z,85.93
2017-06-29T01:29:24.173Z,85.83
2017-06-29T01:29:52.396Z,86.18
2017-06-29T01:30:20.441Z,86.08
2017-06-29T01:30:48.495Z,86.79
2017-06-29T01:31:16.535Z,86.56
2017-06-29T01:31:44.664Z,86.36
2017-06-29T01:32:12.717Z,86.85
2017-06-29T01:32:40.865Z,87.04
2017-06-29T01:33:09.011Z,86.85
2017-06-29T01:33:37.069Z,86.85
2017-06-29T01:34:05.214Z,86.85
2017-06-29T01:34:33.379Z,87.23
2017-06-29T01:35:01.525Z,86.94
2017-06-29T01:35:29.495Z,86.94
2017-06-29T01:35:57.719Z,87.42
2017-06-29T01:36:25.835Z,87.62
2017-06-29T01:36:53.957Z,87.33
2017-06-29T01:37:22.107Z,88
2017-06-29T01:37:50.237Z,87.52
2017-06-29T01:38:18.510Z,87.81
2017-06-29T01:38:46.534Z,88.1
2017-06-29T01:39:14.592Z,87.81
2017-06-29T01:39:42.623Z,87.62
2017-06-29T01:40:10.775Z,88.1
2017-06-29T01:40:38.973Z,88
2017-06-29T01:41:07.136Z,88.39
2017-06-29T01:41:35.263Z,88.15
2017-06-29T01:42:03.313Z,88.39
2017-06-29T01:42:31.441Z,88.73
2017-06-29T01:42:59.619Z,88
2017-06-29T01:43:27.667Z,88.34
2017-06-29T01:43:55.797Z,88.34
2017-06-29T01:44:23.826Z,88.92
2017-06-29T01:44:51.960Z,88.92
2017-06-29T01:45:20.113Z,88.53
2017-06-29T01:45:48.185Z,88.53
2017-06-29T01:46:16.324Z,88.92
2017-06-29T01:46:44.454Z,89.01
2017-06-29T01:47:12.601Z,89.01
2017-06-29T01:47:40.642Z,89.01
2017-06-29T01:48:08.816Z,89.5
2017-06-29T01:48:36.945Z,89.5
2017-06-29T01:49:05.057Z,89.01
2017-06-29T01:49:33.199Z,88.92
2017-06-29T01:50:01.355Z,88.82
2017-06-29T01:50:29.364Z,88.82
2017-06-29T01:50:57.516Z,89.5
2017-06-29T01:51:25.645Z,89.5
2017-06-29T01:51:53.820Z,88.92
2017-06-29T01:52:21.946Z,88.92
2017-06-29T01:52:50.101Z,89.11
2017-06-29T01:53:18.166Z,89.11
2017-06-29T01:53:46.199Z,88.53
2017-06-29T01:54:14.333Z,88.53
2017-06-29T01:54:42.478Z,88.82
2017-06-29T01:55:10.620Z,89.01
2017-06-29T01:55:38.653Z,88.92
2017-06-29T01:56:06.709Z,88.82
2017-06-29T01:56:34.728Z,88.63
2017-06-29T01:57:02.949Z,88.82
2017-06-29T01:57:30.991Z,88.82
2017-06-29T01:57:59.143Z,88.63
2017-06-29T01:58:27.231Z,88.73
2017-06-29T01:58:55.310Z,88.53
2017-06-29T01:59:23.343Z,89.3
2017-06-29T01:59:51.461Z,89.5
2017-06-29T02:00:19.512Z,89.4
2017-06-29T02:00:47.650Z,89.01
2017-06-29T02:01:15.799Z,89.21
2017-06-29T02:01:43.943Z,89.01
2017-06-29T02:02:12.084Z,89.3
2017-06-29T02:02:40.208Z,89.11
2017-06-29T02:03:08.254Z,89.21
2017-06-29T02:03:36.411Z,89.21
2017-06-29T02:04:04.562Z,89.11
2017-06-29T02:04:32.696Z,89.5
2017-06-29T02:05:00.830Z,89.21
2017-06-29T02:05:28.980Z,88.92
2017-06-29T02:05:57.042Z,88.92
2017-06-29T02:06:25.175Z,89.4
2017-06-29T02:06:53.312Z,89.11
2017-06-29T02:07:21.363Z,89.59
2017-06-29T02:07:49.418Z,88.82
2017-06-29T02:08:17.540Z,89.11
2017-06-29T02:08:45.582Z,89.3
2017-06-29T02:09:13.719Z,89.4
2017-06-29T02:09:41.834Z,89.21
2017-06-29T02:10:09.979Z,89.21
2017-06-29T02:10:38.131Z,89.11
2017-06-29T02:11:06.251Z,89.11
2017-06-29T02:11:34.297Z,89.01
2017-06-29T02:12:02.416Z,89.11
2017-06-29T02:12:30.452Z,88.92
2017-06-29T02:12:58.606Z,89.3
2017-06-29T02:13:26.737Z,89.3
2017-06-29T02:13:54.919Z,89.5
2017-06-29T02:14:22.879Z,89.5
2017-06-29T02:14:51.006Z,89.3
2017-06-29T02:15:19.121Z,89.11
2017-06-29T02:15:47.149Z,89.07
2017-06-29T02:16:15.275Z,89.3
2017-06-29T02:16:43.221Z,89.4
2017-06-29T02:17:11.283Z,89.07
2017-06-29T02:17:39.424Z,89.5
2017-06-29T02:18:07.566Z,89.26
2017-06-29T02:18:35.675Z,89.54
2017-06-29T02:19:03.844Z,89.36
2017-06-29T02:19:31.981Z,89.54
2017-06-29T02:20:00.086Z,89.36
2017-06-29T02:20:28.204Z,89.45
2017-06-29T02:20:56.247Z,89.5
2017-06-29T02:21:24.376Z,89.83
2017-06-29T02:21:52.503Z,89.64
2017-06-29T02:22:20.574Z,89.93
2017-06-29T02:22:48.702Z,89.64
2017-06-29T02:23:16.819Z,89.54
2017-06-29T02:23:44.944Z,89.83
2017-06-29T02:24:12.990Z,89.83
2017-06-29T02:24:41.147Z,89.83
2017-06-29T02:25:09.298Z,89.54
2017-06-29T02:25:37.437Z,90.03
2017-06-29T02:26:05.568Z,90.12
2017-06-29T02:26:33.712Z,89.93
2017-06-29T02:27:01.858Z,90.12
2017-06-29T02:27:29.985Z,89.64
2017-06-29T02:27:58.128Z,90.03
2017-06-29T02:28:26.303Z,90.12
2017-06-29T02:28:54.413Z,90.12
2017-06-29T02:29:22.534Z,89.59
2017-06-29T02:29:50.652Z,89.83
2017-06-29T02:30:18.684Z,89.83
2017-06-29T02:30:46.728Z,90.31
2017-06-29T02:31:14.804Z,89.93
2017-06-29T02:31:42.934Z,90.31
2017-06-29T02:32:11.105Z,90.41
2017-06-29T02:32:39.218Z,89.93
2017-06-29T02:33:07.363Z,90.03
2017-06-29T02:33:35.498Z,90.03
2017-06-29T02:34:03.584Z,89.83
2017-06-29T02:34:31.706Z,90.31
2017-06-29T02:34:59.643Z,90.41
2017-06-29T02:35:27.682Z,90.12
2017-06-29T02:35:55.813Z,90.7
2017-06-29T02:36:23.855Z,90.41
2017-06-29T02:36:52.012Z,90.51
2017-06-29T02:37:20.141Z,90.51
2017-06-29T02:37:48.288Z,90.31
2017-06-29T02:38:16.399Z,90.12
2017-06-29T02:38:44.541Z,90.51
2017-06-29T02:39:12.666Z,90.51
2017-06-29T02:39:40.712Z,90.41
2017-06-29T02:40:08.762Z,90.22
2017-06-29T02:40:37.103Z,90.22
2017-06-29T02:41:05.229Z,90.22
2017-06-29T02:41:33.276Z,90.31
2017-06-29T02:42:01.403Z,90.31
2017-06-29T02:42:29.438Z,90.12
2017-06-29T02:42:57.564Z,90.41
2017-06-29T02:43:25.598Z,89.93
2017-06-29T02:43:53.732Z,90.31
2017-06-29T02:44:21.861Z,90.41
2017-06-29T02:44:49.978Z,90.7
2017-06-29T02:45:18.041Z,90.22
2017-06-29T02:45:46.166Z,90.22
2017-06-29T02:46:14.299Z,90.22
2017-06-29T02:46:42.434Z,90.12
2017-06-29T02:47:10.561Z,90.03
2017-06-29T02:47:38.712Z,89.98
2017-06-29T02:48:06.842Z,89.45
2017-06-29T02:48:34.858Z,89.26
2017-06-29T02:49:03.022Z,89.07
2017-06-29T02:49:30.976Z,89.26
2017-06-29T02:49:59.100Z,89.36
2017-06-29T02:50:27.229Z,88.97
2017-06-29T02:50:55.360Z,88.87
2017-06-29T02:51:23.526Z,88.87
2017-06-29T02:51:51.640Z,88.87
2017-06-29T02:52:19.766Z,88.68
2017-06-29T02:52:47.875Z,88.78
2017-06-29T02:53:16.034Z,88.78
2017-06-29T02:53:44.156Z,88.59
2017-06-29T02:54:12.195Z,88.59
2017-06-29T02:54:40.327Z,89.45
2017-06-29T02:55:08.379Z,88.97
2017-06-29T02:55:36.509Z,89.36
2017-06-29T02:56:04.654Z,90.31
2017-06-29T02:56:32.783Z,90.03
2017-06-29T02:57:00.943Z,90.41
2017-06-29T02:57:29.105Z,90.8
2017-06-29T02:57:57.247Z,90.7
2017-06-29T02:58:25.405Z,90.6
2017-06-29T02:58:53.509Z,90.99
2017-06-29T02:59:21.642Z,90.7
2017-06-29T02:59:49.784Z,90.99
2017-06-29T03:00:17.941Z,90.51
2017-06-29T03:00:46.036Z,90.6
2017-06-29T03:01:14.074Z,90.03
2017-06-29T03:01:42.212Z,90.12
2017-06-29T03:02:10.347Z,90.03
2017-06-29T03:02:38.393Z,90.51
2017-06-29T03:03:06.550Z,90.22
2017-06-29T03:03:34.709Z,91.28
2017-06-29T03:04:02.833Z,91.18
2017-06-29T03:04:30.981Z,91.56
2017-06-29T03:04:59.136Z,91.28
2017-06-29T03:05:27.274Z,91.08
2017-06-29T03:05:55.339Z,91.66
2017-06-29T03:06:23.481Z,91.56
2017-06-29T03:06:51.632Z,91.56
2017-06-29T03:07:19.757Z,91.56
2017-06-29T03:07:47.886Z,91.37
2017-06-29T03:08:16.020Z,91.56
2017-06-29T03:08:44.074Z,92.14
2017-06-29T03:09:12.172Z,91.81
2017-06-29T03:09:40.048Z,91.37
2017-06-29T03:10:08.205Z,91.33
2017-06-29T03:10:36.320Z,92.24
2017-06-29T03:11:04.461Z,92.1
2017-06-29T03:11:32.606Z,92.05
2017-06-29T03:12:00.763Z,92
2017-06-29T03:12:28.798Z,92.24
2017-06-29T03:12:56.912Z,92.1
2017-06-29T03:13:25.073Z,92.57
2017-06-29T03:13:53.217Z,91.9
2017-06-29T03:14:21.355Z,92.77
2017-06-29T03:14:49.400Z,92.67
2017-06-29T03:15:17.431Z,92.38
2017-06-29T03:15:45.543Z,92.57
2017-06-29T03:16:13.715Z,92.77
2017-06-29T03:16:41.858Z,92.57
2017-06-29T03:17:09.982Z,92.19
2017-06-29T03:17:38.024Z,92.57
2017-06-29T03:18:06.068Z,92.77
2017-06-29T03:18:34.120Z,92.19
2017-06-29T03:19:02.225Z,91.9
2017-06-29T03:19:30.332Z,92.57
2017-06-29T03:19:58.485Z,92.38
2017-06-29T03:20:26.617Z,92.19
2017-06-29T03:20:54.750Z,92.57
2017-06-29T03:21:22.903Z,93.34
2017-06-29T03:21:51.062Z,93.05
2017-06-29T03:22:19.226Z,93.05
2017-06-29T03:22:47.351Z,94.01
2017-06-29T03:23:15.485Z,94.01
2017-06-29T03:23:43.422Z,94.11
2017-06-29T03:24:11.532Z,93.82
2017-06-29T03:24:39.567Z,94.21
2017-06-29T03:25:07.622Z,94.21
2017-06-29T03:25:35.748Z,94.74
2017-06-29T03:26:03.890Z,94.93
2017-06-29T03:26:32.043Z,95.03
2017-06-29T03:27:00.189Z,95.12
2017-06-29T03:27:28.230Z,95.6
2017-06-29T03:27:56.340Z,95.5
2017-06-29T03:28:24.478Z,96.18
2017-06-29T03:28:52.509Z,95.7
2017-06-29T03:29:20.650Z,95.7
2017-06-29T03:29:48.799Z,95.7
2017-06-29T03:30:16.948Z,95.7
2017-06-29T03:30:45.003Z,96.56
2017-06-29T03:31:12.980Z,96.37
2017-06-29T03:31:41.133Z,96.66
2017-06-29T03:32:09.271Z,96.66
2017-06-29T03:32:37.286Z,96.66
2017-06-29T03:33:05.333Z,96.56
2017-06-29T03:33:33.465Z,97.04
2017-06-29T03:34:01.576Z,97.14
2017-06-29T03:34:29.606Z,97.33
2017-06-29T03:34:57.743Z,97.24
2017-06-29T03:35:25.782Z,97.61
2017-06-29T03:35:53.881Z,97.71
2017-06-29T03:36:22.032Z,97.61
2017-06-29T03:36:50.153Z,97.52
2017-06-29T03:37:18.295Z,98.29
2017-06-29T03:37:46.347Z,98.1
2017-06-29T03:38:14.489Z,98.38
2017-06-29T03:38:42.611Z,98.77
2017-06-29T03:39:10.677Z,98.86
2017-06-29T03:39:38.801Z,98.67
2017-06-29T03:40:06.820Z,98.86
2017-06-29T03:40:34.969Z,98.58
2017-06-29T03:41:03.123Z,99.25
2017-06-29T03:41:31.227Z,98.38
2017-06-29T03:41:59.270Z,98.58
2017-06-29T03:42:27.406Z,98.67
2017-06-29T03:42:55.570Z,98.67
2017-06-29T03:43:23.612Z,98.67
2017-06-29T03:43:51.756Z,98.67
2017-06-29T03:44:19.906Z,98.29
2017-06-29T03:44:47.926Z,98.19
2017-06-29T03:45:16.058Z,98.86
2017-06-29T03:45:44.174Z,98.67
2017-06-29T03:46:12.326Z,98.58
2017-06-29T03:46:40.468Z,98.86
2017-06-29T03:47:08.624Z,98.67
2017-06-29T03:47:36.754Z,98.58
2017-06-29T03:48:04.902Z,98.19
2017-06-29T03:48:33.038Z,98.19
2017-06-29T03:49:01.179Z,98
2017-06-29T03:49:29.303Z,97.81
2017-06-29T03:49:57.355Z,98.38
2017-06-29T03:50:25.370Z,97.52
2017-06-29T03:50:53.513Z,97.42
2017-06-29T03:51:21.655Z,97.61
2017-06-29T03:51:49.797Z,97.81
2017-06-29T03:52:17.944Z,97.24
2017-06-29T03:52:46.058Z,97.42
2017-06-29T03:53:14.199Z,97.14
2017-06-29T03:53:42.346Z,97.24
2017-06-29T03:54:10.474Z,97.04
2017-06-29T03:54:38.580Z,96.94
2017-06-29T03:55:06.708Z,97.14
2017-06-29T03:55:34.767Z,96.75
2017-06-29T03:56:02.883Z,97.04
2017-06-29T03:56:30.961Z,96.75
2017-06-29T03:56:59.111Z,96.66
2017-06-29T03:57:27.257Z,97.04
2017-06-29T03:57:55.396Z,96.94
2017-06-29T03:58:23.448Z,96.94
2017-06-29T03:58:51.597Z,97.14
2017-06-29T03:59:19.733Z,96.66
2017-06-29T03:59:47.771Z,96.37
2017-06-29T04:00:15.891Z,96.94
2017-06-29T04:00:58.524Z,97.14
2017-06-29T04:01:26.660Z,97.14
2017-06-29T04:01:54.731Z,97.14
2017-06-29T04:02:22.867Z,97.33
2017-06-29T04:02:50.991Z,97.24
2017-06-29T04:03:19.169Z,97.24
2017-06-29T04:03:47.222Z,98
2017-06-29T04:04:15.337Z,97.04
2017-06-29T04:04:43.470Z,97.04
2017-06-29T04:05:11.627Z,98.05
2017-06-29T04:05:39.659Z,97.56
2017-06-29T04:06:07.803Z,97.76
2017-06-29T04:06:35.842Z,97.38
2017-06-29T04:07:03.941Z,97.95
2017-06-29T04:07:32.014Z,98.05
2017-06-29T04:08:00.164Z,98.14
2017-06-29T04:08:28.297Z,98.14
2017-06-29T04:08:56.434Z,98.05
2017-06-29T04:09:24.573Z,98.05
2017-06-29T04:09:52.708Z,98.14
2017-06-29T04:10:20.836Z,98.14
2017-06-29T04:10:48.843Z,98.14
2017-06-29T04:11:16.975Z,97.56
2017-06-29T04:11:45.096Z,97.76
2017-06-29T04:12:13.176Z,97.66
2017-06-29T04:12:41.302Z,97.56
2017-06-29T04:13:09.435Z,97.56
2017-06-29T04:13:37.467Z,97.19
2017-06-29T04:14:05.599Z,97.19
2017-06-29T04:14:33.714Z,97.47
2017-06-29T04:15:01.817Z,97.28
2017-06-29T04:15:29.847Z,97.19
2017-06-29T04:15:57.911Z,97.38
2017-06-29T04:16:25.969Z,97.09
2017-06-29T04:16:54.098Z,97.19
2017-06-29T04:17:22.249Z,97.19
2017-06-29T04:17:50.388Z,96.99
2017-06-29T04:18:18.543Z,96.61
2017-06-29T04:18:46.702Z,96.89
2017-06-29T04:19:14.843Z,96.61
2017-06-29T04:19:42.999Z,96.8
2017-06-29T04:20:11.113Z,96.99
2017-06-29T04:20:39.252Z,96.99
2017-06-29T04:21:07.396Z,96.89
2017-06-29T04:21:35.394Z,97.19
2017-06-29T04:22:03.531Z,97.09
2017-06-29T04:22:31.684Z,96.99
2017-06-29T04:22:59.799Z,96.99
2017-06-29T04:23:27.861Z,96.89
2017-06-29T04:23:56.001Z,97.09
2017-06-29T04:24:24.155Z,97.38
2017-06-29T04:24:52.211Z,97.09
2017-06-29T04:25:20.251Z,96.99
2017-06-29T04:25:48.400Z,96.99
2017-06-29T04:26:16.539Z,96.89
2017-06-29T04:26:44.672Z,96.7
2017-06-29T04:27:12.842Z,96.7
2017-06-29T04:27:40.973Z,97.28
2017-06-29T04:28:09.007Z,97.28
2017-06-29T04:28:37.151Z,97.09
2017-06-29T04:29:05.097Z,96.89
2017-06-29T04:29:33.140Z,97.09
2017-06-29T04:30:01.299Z,97.28
2017-06-29T04:30:29.233Z,97.09
2017-06-29T04:30:57.365Z,96.89
2017-06-29T04:31:25.494Z,97.28
2017-06-29T04:31:53.533Z,96.89
2017-06-29T04:32:21.675Z,97.28
2017-06-29T04:32:49.807Z,97.09
2017-06-29T04:33:17.953Z,96.89
2017-06-29T04:33:46.053Z,97.09
2017-06-29T04:34:14.185Z,96.99
2017-06-29T04:34:42.312Z,96.99
2017-06-29T04:35:10.460Z,96.99
2017-06-29T04:35:38.492Z,96.99
2017-06-29T04:36:06.647Z,96.61
2017-06-29T04:36:34.792Z,96.8
2017-06-29T04:37:02.936Z,96.8
2017-06-29T04:37:30.957Z,96.51
2017-06-29T04:37:58.994Z,96.89
2017-06-29T04:38:27.134Z,96.99
2017-06-29T04:38:55.278Z,97.19
2017-06-29T04:39:23.434Z,97.86
2017-06-29T04:39:51.557Z,97.38
2017-06-29T04:40:19.525Z,97.86
2017-06-29T04:40:47.643Z,97.52
2017-06-29T04:41:15.782Z,97.52
2017-06-29T04:41:43.938Z,97.38
2017-06-29T04:42:12.116Z,98.33
2017-06-29T04:42:40.234Z,97.76
2017-06-29T04:43:08.274Z,97.61
2017-06-29T04:43:36.337Z,98.24
2017-06-29T04:44:04.396Z,98.19
2017-06-29T04:44:32.544Z,98.1
2017-06-29T04:45:00.648Z,98.38
2017-06-29T04:45:28.662Z,98.57
2017-06-29T04:45:56.810Z,98.57
2017-06-29T04:46:24.840Z,98.57
2017-06-29T04:46:52.843Z,98.38
2017-06-29T04:47:20.961Z,98.77
2017-06-29T04:47:49.014Z,98.77
2017-06-29T04:48:17.157Z,98.57
2017-06-29T04:48:45.294Z,98.77
2017-06-29T04:49:13.358Z,98.57
2017-06-29T04:49:41.504Z,98.48
2017-06-29T04:50:09.621Z,98.77
2017-06-29T04:50:37.765Z,99.34
2017-06-29T04:51:05.871Z,99.24
2017-06-29T04:51:34.030Z,99.15
2017-06-29T04:52:02.154Z,99.34
2017-06-29T04:52:30.276Z,99.15
2017-06-29T04:52:58.425Z,99.44
2017-06-29T04:53:26.569Z,99.73
2017-06-29T04:53:54.700Z,99.91
2017-06-29T04:54:22.840Z,99.99
2017-06-29T04:54:50.965Z,99.99
2017-06-29T04:55:19.101Z,99.99
2017-06-29T04:55:47.145Z,99.99
2017-06-29T04:56:15.304Z,99.82
2017-06-29T04:56:43.461Z,99.82
2017-06-29T04:57:11.572Z,99.99
2017-06-29T04:57:39.718Z,99.99
2017-06-29T04:58:07.879Z,99.99
2017-06-29T04:58:35.993Z,99.99
2017-06-29T04:59:04.150Z,99.99
2017-06-29T04:59:32.259Z,99.99
2017-06-29T05:00:00.402Z,99.99
2017-06-29T05:00:28.541Z,99.99
2017-06-29T05:00:56.691Z,99.99
2017-06-29T05:01:24.841Z,99.99
2017-06-29T05:01:52.990Z,99.99
2017-06-29T05:02:21.149Z,99.99
2017-06-29T05:02:49.303Z,99.99
2017-06-29T05:03:17.461Z,99.99
2017-06-29T05:03:45.582Z,99.99
2017-06-29T05:04:13.601Z,99.99
2017-06-29T05:04:41.736Z,99.99
2017-06-29T05:05:09.790Z,99.99
2017-06-29T05:05:37.951Z,99.99
2017-06-29T05:06:06.095Z,99.99
2017-06-29T05:06:34.239Z,99.99
2017-06-29T05:07:02.374Z,99.99
2017-06-29T05:07:30.424Z,99.99
2017-06-29T05:07:58.543Z,99.99
2017-06-29T05:08:26.596Z,99.99
2017-06-29T05:08:54.648Z,99.99
2017-06-29T05:09:22.780Z,99.99
2017-06-29T05:09:50.926Z,99.99
2017-06-29T05:10:19.076Z,99.99
2017-06-29T05:10:47.205Z,99.99
2017-06-29T05:11:15.357Z,99.99
2017-06-29T05:11:43.509Z,99.99
2017-06-29T05:12:11.627Z,99.99
2017-06-29T05:12:39.783Z,99.99
2017-06-29T05:13:07.940Z,99.99
2017-06-29T05:13:36.079Z,99.99
2017-06-29T05:14:04.207Z,99.99
2017-06-29T05:14:32.197Z,99.99
2017-06-29T05:15:00.246Z,99.99
2017-06-29T05:15:28.372Z,99.99
2017-06-29T05:15:56.499Z,99.99
2017-06-29T05:16:24.657Z,99.99
2017-06-29T05:16:52.799Z,99.99
2017-06-29T05:17:20.874Z,99.99
2017-06-29T05:17:48.997Z,99.99
2017-06-29T05:18:17.151Z,99.99
2017-06-29T05:18:45.295Z,99.99
2017-06-29T05:19:13.402Z,99.99
2017-06-29T05:19:41.440Z,99.99
2017-06-29T05:20:09.575Z,99.99
2017-06-29T05:20:37.641Z,99.99
2017-06-29T05:21:05.800Z,99.99
2017-06-29T05:21:33.961Z,99.99
2017-06-29T05:22:02.093Z,99.99
2017-06-29T05:22:30.246Z,99.99
2017-06-29T05:22:58.387Z,99.99
2017-06-29T05:23:26.522Z,99.99
2017-06-29T05:23:54.585Z,99.99
2017-06-29T05:24:23.166Z,99.99
2017-06-29T05:24:51.296Z,99.99
2017-06-29T05:25:19.251Z,99.99
2017-06-29T05:25:47.393Z,99.99
2017-06-29T05:26:15.495Z,99.99
2017-06-29T05:26:43.463Z,99.99
2017-06-29T05:27:11.494Z,99.99
2017-06-29T05:27:39.625Z,99.99
2017-06-29T05:28:07.781Z,99.99
2017-06-29T05:28:35.936Z,99.99
2017-06-29T05:29:04.067Z,99.99
2017-06-29T05:29:32.014Z,99.99
2017-06-29T05:30:00.143Z,99.99
2017-06-29T05:30:28.258Z,99.99
2017-06-29T05:30:56.425Z,99.99
2017-06-29T05:31:24.553Z,99.99
2017-06-29T05:31:52.585Z,99.99
2017-06-29T05:32:20.601Z,99.99
2017-06-29T05:32:48.677Z,99.99
2017-06-29T05:33:16.812Z,99.99
2017-06-29T05:33:44.882Z,99.99
2017-06-29T05:34:13.018Z,99.99
2017-06-29T05:34:41.074Z,99.99
2017-06-29T05:35:09.204Z,99.99
2017-06-29T05:35:37.331Z,99.99
2017-06-29T05:36:05.451Z,99.99
2017-06-29T05:36:33.600Z,99.99
2017-06-29T05:37:01.743Z,99.99
2017-06-29T05:37:29.820Z,99.99
2017-06-29T05:37:57.864Z,99.99
2017-06-29T05:38:25.977Z,99.99
2017-06-29T05:38:54.132Z,99.99
2017-06-29T05:39:22.299Z,99.99
2017-06-29T05:39:50.469Z,99.99
2017-06-29T05:40:18.491Z,99.99
2017-06-29T05:40:46.553Z,99.99
2017-06-29T05:41:14.673Z,99.99
2017-06-29T05:41:42.836Z,99.99
2017-06-29T05:42:10.978Z,99.99
2017-06-29T05:42:39.143Z,99.99
2017-06-29T05:43:07.268Z,99.99
2017-06-29T05:43:35.336Z,99.99
2017-06-29T05:44:03.460Z,99.99
2017-06-29T05:44:31.606Z,99.99
2017-06-29T05:44:59.644Z,99.99
2017-06-29T05:45:27.709Z,99.99
2017-06-29T05:45:55.826Z,99.99
2017-06-29T05:46:23.959Z,99.99
2017-06-29T05:46:52.025Z,99.99
2017-06-29T05:47:20.140Z,99.99
2017-06-29T05:47:48.191Z,99.99
2017-06-29T05:48:16.318Z,99.99
2017-06-29T05:48:44.349Z,99.99
2017-06-29T05:49:12.479Z,99.99
2017-06-29T05:49:40.538Z,99.99
2017-06-29T05:50:08.579Z,99.99
2017-06-29T05:50:36.719Z,99.99
2017-06-29T05:51:04.767Z,99.99
2017-06-29T05:51:32.901Z,99.99
2017-06-29T05:52:00.961Z,99.99
2017-06-29T05:52:29.102Z,99.99
2017-06-29T05:52:57.222Z,99.99
2017-06-29T05:53:25.352Z,99.99
2017-06-29T05:53:53.472Z,99.99
2017-06-29T05:54:21.619Z,99.99
2017-06-29T05:54:49.649Z,99.99
2017-06-29T05:55:17.804Z,99.99
2017-06-29T05:55:45.959Z,99.99
2017-06-29T05:56:14.118Z,99.99
2017-06-29T05:56:42.147Z,99.99
2017-06-29T05:57:10.302Z,99.99
2017-06-29T05:57:38.341Z,99.99
2017-06-29T05:58:06.510Z,99.99
2017-06-29T05:58:34.643Z,99.99
2017-06-29T05:59:02.793Z,99.99
2017-06-29T05:59:30.935Z,99.99
2017-06-29T05:59:58.978Z,99.99
2017-06-29T06:00:26.995Z,99.99
2017-06-29T06:00:55.132Z,99.99
2017-06-29T06:01:23.256Z,99.99
2017-06-29T06:01:51.356Z,99.99
2017-06-29T06:02:19.428Z,99.99
2017-06-29T06:02:47.566Z,99.99
2017-06-29T06:03:15.705Z,99.99
2017-06-29T06:03:43.851Z,99.99
2017-06-29T06:04:11.965Z,99.99
2017-06-29T06:04:40.079Z,99.99
2017-06-29T06:05:08.208Z,99.99